createdAt,value
2019-05-12T00:00:22.249Z,3.90
2019-05-12T00:02:50.824Z,3.40
2019-05-12T00:05:19.416Z,4.23
2019-05-12T00:07:48.967Z,4.33
2019-05-12T00:10:18.029Z,3.90
2019-05-12T00:12:48.291Z,4.10
2019-05-12T00:15:19.191Z,4.57
2019-05-12T00:17:48.611Z,4.50
2019-05-12T00:20:18.303Z,4.33
2019-05-12T00:22:50.950Z,4.10
2019-05-12T00:25:19.556Z,3.90
2019-05-12T00:27:48.823Z,4.27
2019-05-12T00:30:49.039Z,3.60
2019-05-12T00:33:18.061Z,3.70
2019-05-12T00:35:48.322Z,3.83
2019-05-12T00:38:17.721Z,3.83
2019-05-12T00:40:47.871Z,3.87
2019-05-12T00:43:18.832Z,3.87
2019-05-12T00:45:48.257Z,4.70
2019-05-12T00:48:17.884Z,4.10
2019-05-12T00:50:48.549Z,4.10
2019-05-12T00:53:18.941Z,4.50
2019-05-12T00:55:47.719Z,4.00
2019-05-12T00:58:19.115Z,3.90
2019-05-12T01:00:48.240Z,4.20
2019-05-12T01:03:18.922Z,3.83
2019-05-12T01:05:48.498Z,3.77
2019-05-12T01:08:18.676Z,4.23
2019-05-12T01:10:47.971Z,3.97
2019-05-12T01:13:18.720Z,4.33
2019-05-12T01:15:48.140Z,4.27
2019-05-12T01:18:18.129Z,4.43
2019-05-12T01:20:47.957Z,4.97
2019-05-12T01:23:18.803Z,4.97
2019-05-12T01:25:47.808Z,4.60
2019-05-12T01:28:18.360Z,4.80
2019-05-12T01:30:47.897Z,4.77
2019-05-12T01:33:18.458Z,4.93
2019-05-12T01:35:48.268Z,4.53
2019-05-12T01:38:18.216Z,4.70
2019-05-12T01:40:47.899Z,4.47
2019-05-12T01:43:20.698Z,4.70
2019-05-12T01:45:48.243Z,5.07
2019-05-12T01:48:18.398Z,4.80
2019-05-12T01:50:47.611Z,4.50
2019-05-12T01:53:18.106Z,5.10
2019-05-12T01:55:48.571Z,4.57
2019-05-12T01:58:19.328Z,5.23
2019-05-12T02:00:48.225Z,4.53
2019-05-12T02:03:17.827Z,4.80
2019-05-12T02:05:49.564Z,4.90
2019-05-12T02:08:23.862Z,5.07
2019-05-12T02:11:11.893Z,5.57
2019-05-12T02:13:40.483Z,4.93
2019-05-12T02:16:08.970Z,5.90
2019-05-12T02:18:38.212Z,4.73
2019-05-12T02:21:08.406Z,5.30
2019-05-12T02:23:38.687Z,5.43
2019-05-12T02:26:08.282Z,6.37
2019-05-12T02:28:39.287Z,8.00
2019-05-12T02:31:09.550Z,9.83
2019-05-12T02:33:37.608Z,11.87
2019-05-12T02:36:06.087Z,13.60
2019-05-12T02:38:34.567Z,7.43
2019-05-12T02:41:04.726Z,5.20
2019-05-12T02:43:34.846Z,7.17
2019-05-12T02:46:04.829Z,4.97
2019-05-12T02:48:35.651Z,5.60
2019-05-12T02:51:05.696Z,4.90
2019-05-12T02:53:35.275Z,5.57
2019-05-12T02:56:04.978Z,5.20
2019-05-12T02:58:35.699Z,4.47
2019-05-12T03:01:05.439Z,4.80
2019-05-12T03:03:38.055Z,5.03
2019-05-12T03:06:06.653Z,5.10
2019-05-12T03:08:36.544Z,4.90
2019-05-12T03:11:06.263Z,5.87
2019-05-12T03:13:34.979Z,5.37
2019-05-12T03:16:04.968Z,5.30
2019-05-12T03:18:34.779Z,5.07
2019-05-12T03:21:05.521Z,5.60
2019-05-12T03:23:35.207Z,5.43
2019-05-12T03:26:05.162Z,5.20
2019-05-12T03:28:35.652Z,5.60
2019-05-12T03:31:07.864Z,5.43
2019-05-12T03:33:42.738Z,5.37
2019-05-12T03:36:08.984Z,5.10
2019-05-12T03:38:36.304Z,5.10
2019-05-12T03:41:05.493Z,5.60
2019-05-12T03:43:35.255Z,5.83
2019-05-12T03:46:05.249Z,5.70
2019-05-12T03:48:35.105Z,5.80
2019-05-12T03:51:05.705Z,5.67
2019-05-12T03:53:35.247Z,6.00
2019-05-12T03:56:04.544Z,5.77
2019-05-12T03:58:34.552Z,5.20
2019-05-12T04:01:04.590Z,5.57
2019-05-12T04:03:34.553Z,5.40
2019-05-12T04:06:04.738Z,5.40
2019-05-12T04:08:34.671Z,5.80
2019-05-12T04:11:05.276Z,5.30
2019-05-12T04:13:34.319Z,5.00
2019-05-12T04:16:04.887Z,5.33
2019-05-12T04:18:34.975Z,5.03
2019-05-12T04:21:05.509Z,5.57
2019-05-12T04:23:34.963Z,5.30
2019-05-12T04:26:11.382Z,5.10
2019-05-12T04:28:35.111Z,5.83
2019-05-12T04:31:05.482Z,5.10
2019-05-12T04:33:34.774Z,7.63
2019-05-12T04:36:05.572Z,6.60
2019-05-12T04:38:35.455Z,6.87
2019-05-12T04:41:05.915Z,5.50
2019-05-12T04:43:35.432Z,5.30
2019-05-12T04:46:05.049Z,6.20
2019-05-12T04:48:35.884Z,6.47
2019-05-12T04:51:05.134Z,5.70
2019-05-12T04:53:35.168Z,5.40
2019-05-12T04:56:15.262Z,6.23
2019-05-12T04:58:35.255Z,6.40
2019-05-12T05:01:06.341Z,6.23
2019-05-12T05:03:35.001Z,6.10
2019-05-12T05:06:04.566Z,5.90
2019-05-12T05:08:34.888Z,6.03
2019-05-12T05:11:04.141Z,6.30
2019-05-12T05:13:36.807Z,6.57
2019-05-12T05:16:05.457Z,7.00
2019-05-12T05:18:34.473Z,6.07
2019-05-12T05:21:04.691Z,6.50
2019-05-12T05:23:33.571Z,6.67
2019-05-12T05:26:03.274Z,6.60
2019-05-12T05:28:33.953Z,6.50
2019-05-12T05:31:03.545Z,6.20
2019-05-12T05:33:34.071Z,6.30
2019-05-12T05:36:03.476Z,6.20
2019-05-12T05:38:34.283Z,6.47
2019-05-12T05:41:06.046Z,6.70
2019-05-12T05:43:33.356Z,6.37
2019-05-12T05:46:07.648Z,6.80
2019-05-12T05:48:35.092Z,6.07
2019-05-12T05:51:05.875Z,6.33
2019-05-12T05:53:33.648Z,5.47
2019-05-12T05:56:04.077Z,6.27
2019-05-12T05:58:33.961Z,6.10
2019-05-12T06:01:07.610Z,6.07
2019-05-12T06:03:33.865Z,5.97
2019-05-12T06:06:10.726Z,6.10
2019-05-12T06:08:33.796Z,4.67
2019-05-12T06:11:04.829Z,5.23
2019-05-12T06:13:34.550Z,5.80
2019-05-12T06:16:04.399Z,5.80
2019-05-12T06:18:33.516Z,4.60
2019-05-12T06:21:03.438Z,5.70
2019-05-12T06:23:34.937Z,5.47
2019-05-12T06:26:04.332Z,6.63
2019-05-12T06:28:37.108Z,6.57
2019-05-12T06:31:04.231Z,6.57
2019-05-12T06:33:36.143Z,6.57
2019-05-12T06:36:04.491Z,5.87
2019-05-12T06:38:37.184Z,6.87
2019-05-12T06:41:04.477Z,5.30
2019-05-12T06:43:35.245Z,6.37
2019-05-12T06:46:03.777Z,3.97
2019-05-12T06:48:33.234Z,4.17
2019-05-12T06:51:03.898Z,5.20
2019-05-12T06:53:33.667Z,5.93
2019-05-12T06:56:04.500Z,6.73
2019-05-12T06:58:34.531Z,6.00
2019-05-12T07:01:10.302Z,6.30
2019-05-12T07:03:37.210Z,6.00
2019-05-12T07:06:09.191Z,5.17
2019-05-12T07:08:38.337Z,5.93
2019-05-12T07:11:06.258Z,6.53
2019-05-12T07:13:35.094Z,5.80
2019-05-12T07:16:16.661Z,6.37
2019-05-12T07:18:46.379Z,4.87
2019-05-12T07:21:19.663Z,5.43
2019-05-12T07:23:45.469Z,5.53
2019-05-12T07:26:19.340Z,5.50
2019-05-12T07:28:44.614Z,6.10
2019-05-12T07:31:14.319Z,6.13
2019-05-12T07:33:45.699Z,5.30
2019-05-12T07:36:14.707Z,4.93
2019-05-12T07:38:45.603Z,5.13
2019-05-12T07:41:14.580Z,4.83
2019-05-12T07:43:45.064Z,4.80
2019-05-12T07:46:15.941Z,3.80
2019-05-12T07:48:48.948Z,4.10
2019-05-12T07:51:14.848Z,3.80
2019-05-12T07:53:46.883Z,4.00
2019-05-12T07:56:14.468Z,3.73
2019-05-12T07:58:47.471Z,3.60
2019-05-12T08:01:14.626Z,4.00
2019-05-12T08:03:43.715Z,3.70
2019-05-12T08:06:14.230Z,3.77
2019-05-12T08:08:50.242Z,4.27
2019-05-12T08:11:14.965Z,4.07
2019-05-12T08:13:44.017Z,3.53
2019-05-12T08:16:14.199Z,3.77
2019-05-12T08:18:44.442Z,3.80
2019-05-12T08:21:13.977Z,3.57
2019-05-12T08:23:44.406Z,3.70
2019-05-12T08:26:18.272Z,3.57
2019-05-12T08:28:44.161Z,3.83
2019-05-12T08:31:14.109Z,3.83
2019-05-12T08:33:43.642Z,3.93
2019-05-12T08:36:15.957Z,3.67
2019-05-12T08:38:44.423Z,3.20
2019-05-12T08:41:14.596Z,3.53
2019-05-12T08:43:46.887Z,3.70
2019-05-12T08:46:15.729Z,3.03
2019-05-12T08:48:44.722Z,3.10
2019-05-12T08:51:16.742Z,2.90
2019-05-12T08:53:44.046Z,3.13
2019-05-12T08:56:18.955Z,3.77
2019-05-12T08:58:48.262Z,3.90
2019-05-12T09:01:13.902Z,3.37
2019-05-12T09:03:44.286Z,3.37
2019-05-12T09:06:15.419Z,3.00
2019-05-12T09:08:49.217Z,3.30
2019-05-12T09:11:14.840Z,3.70
2019-05-12T09:13:43.589Z,3.50
2019-05-12T09:16:13.788Z,3.70
2019-05-12T09:18:43.450Z,3.50
2019-05-12T09:21:14.091Z,3.40
2019-05-12T09:23:45.423Z,3.50
2019-05-12T09:26:13.601Z,3.20
2019-05-12T09:28:47.521Z,3.43
2019-05-12T09:31:14.130Z,3.50
2019-05-12T09:33:44.461Z,3.20
2019-05-12T09:36:19.649Z,3.20
2019-05-12T09:38:44.086Z,3.47
2019-05-12T09:41:14.009Z,3.20
2019-05-12T09:43:46.455Z,2.83
2019-05-12T09:46:14.413Z,2.90
2019-05-12T09:48:45.653Z,2.90
2019-05-12T09:51:16.939Z,2.90
2019-05-12T09:53:50.941Z,3.03
2019-05-12T09:56:14.494Z,2.60
2019-05-12T09:58:43.657Z,2.93
2019-05-12T10:01:13.982Z,2.80
2019-05-12T10:03:43.806Z,2.60
2019-05-12T10:06:19.515Z,3.10
2019-05-12T10:08:43.487Z,9.20
2019-05-12T10:11:16.565Z,8.57
2019-05-12T10:13:44.793Z,4.03
2019-05-12T10:16:13.485Z,3.90
2019-05-12T10:18:50.812Z,2.90
2019-05-12T10:21:15.559Z,2.70
2019-05-12T10:23:43.644Z,2.20
2019-05-12T10:26:14.582Z,2.80
2019-05-12T10:28:43.677Z,2.77
2019-05-12T10:31:13.858Z,2.80
2019-05-12T10:33:43.327Z,2.70
2019-05-12T10:36:11.775Z,2.60
2019-05-12T10:38:40.277Z,2.47
2019-05-12T10:41:08.849Z,2.50
2019-05-12T10:43:37.440Z,2.30
2019-05-12T10:46:06.128Z,2.60
2019-05-12T10:48:34.849Z,2.53
2019-05-12T10:51:03.439Z,2.30
2019-05-12T10:53:34.081Z,2.30
2019-05-12T10:56:02.345Z,2.70
2019-05-12T10:58:30.759Z,2.37
2019-05-12T11:01:05.404Z,2.50
2019-05-12T11:03:29.758Z,2.60
2019-05-12T11:06:02.767Z,2.43
2019-05-12T11:08:28.664Z,2.60
2019-05-12T11:11:01.133Z,2.70
2019-05-12T11:13:27.911Z,3.07
2019-05-12T11:15:56.380Z,2.70
2019-05-12T11:18:30.104Z,2.63
2019-05-12T11:20:55.340Z,2.63
2019-05-12T11:23:24.492Z,3.00
2019-05-12T11:25:53.496Z,2.40
2019-05-12T11:28:24.223Z,2.50
2019-05-12T11:30:52.405Z,2.73
2019-05-12T11:33:20.894Z,2.83
2019-05-12T11:35:50.796Z,2.67
2019-05-12T11:38:19.367Z,2.90
2019-05-12T11:40:47.970Z,2.57
2019-05-12T11:43:16.365Z,3.13
2019-05-12T11:45:44.938Z,2.70
2019-05-12T11:48:14.406Z,2.90
2019-05-12T11:50:47.748Z,2.40
2019-05-12T11:53:13.873Z,2.63
2019-05-12T11:55:43.736Z,2.60
2019-05-12T11:58:12.460Z,2.80
2019-05-12T12:00:44.114Z,2.53
2019-05-12T12:03:17.427Z,3.10
2019-05-12T12:05:44.305Z,3.00
2019-05-12T12:08:14.470Z,2.80
2019-05-12T12:10:43.396Z,2.63
2019-05-12T12:13:14.051Z,3.20
2019-05-12T12:15:42.532Z,3.13
2019-05-12T12:18:14.871Z,2.93
2019-05-12T12:20:44.234Z,2.97
2019-05-12T12:23:14.121Z,3.17
2019-05-12T12:25:48.039Z,2.83
2019-05-12T12:28:13.714Z,2.80
2019-05-12T12:30:47.439Z,2.97
2019-05-12T12:33:14.388Z,2.80
2019-05-12T12:35:44.512Z,2.63
2019-05-12T12:38:14.114Z,2.90
2019-05-12T12:40:44.200Z,3.80
2019-05-12T12:43:13.792Z,12.83
2019-05-12T12:46:10.716Z,12.23
2019-05-12T12:48:38.289Z,8.87
2019-05-12T12:51:06.692Z,6.60
2019-05-12T12:53:35.361Z,12.30
2019-05-12T12:56:04.464Z,3.40
2019-05-12T12:58:34.540Z,2.00
2019-05-12T13:01:03.985Z,2.40
2019-05-12T13:03:34.038Z,2.20
2019-05-12T13:06:04.751Z,1.80
2019-05-12T13:08:34.233Z,1.50
2019-05-12T13:11:04.288Z,1.63
2019-05-12T13:13:33.171Z,1.70
2019-05-12T13:16:03.914Z,1.30
2019-05-12T13:18:36.233Z,1.80
2019-05-12T13:21:03.903Z,1.77
2019-05-12T13:23:37.822Z,2.60
2019-05-12T13:26:04.273Z,2.30
2019-05-12T13:28:34.291Z,3.00
2019-05-12T13:31:10.948Z,29.93
2019-05-12T13:33:33.937Z,10.77
2019-05-12T13:36:04.347Z,5.70
2019-05-12T13:38:38.294Z,3.07
2019-05-12T13:41:04.348Z,4.20
2019-05-12T13:43:34.050Z,2.00
2019-05-12T13:46:02.629Z,2.77
2019-05-12T13:48:31.027Z,2.70
2019-05-12T13:51:10.393Z,2.90
2019-05-12T13:53:30.404Z,2.23
2019-05-12T13:55:59.299Z,1.80
2019-05-12T13:58:36.881Z,2.30
2019-05-12T14:01:13.539Z,3.07
2019-05-12T14:03:28.547Z,1.77
2019-05-12T14:05:57.031Z,2.00
2019-05-12T14:08:25.525Z,2.07
2019-05-12T14:10:59.479Z,2.37
2019-05-12T14:13:24.717Z,1.67
2019-05-12T14:15:53.776Z,1.83
2019-05-12T14:18:22.552Z,2.73
2019-05-12T14:20:56.175Z,1.80
2019-05-12T14:23:23.819Z,2.70
2019-05-12T14:25:54.099Z,2.10
2019-05-12T14:28:23.404Z,2.03
2019-05-12T14:30:54.344Z,1.70
2019-05-12T14:33:24.568Z,2.20
2019-05-12T14:35:53.730Z,1.70
2019-05-12T14:38:27.441Z,2.50
2019-05-12T14:40:53.649Z,2.67
2019-05-12T14:43:24.027Z,2.33
2019-05-12T14:45:54.092Z,2.13
2019-05-12T14:48:23.071Z,2.17
2019-05-12T14:50:53.567Z,1.80
2019-05-12T14:53:23.762Z,1.70
2019-05-12T14:55:53.582Z,2.13
2019-05-12T14:58:23.652Z,2.37
2019-05-12T15:00:56.158Z,1.73
2019-05-12T15:03:24.105Z,1.60
2019-05-12T15:05:54.548Z,2.03
2019-05-12T15:08:35.249Z,2.10
2019-05-12T15:10:53.891Z,1.70
2019-05-12T15:13:23.959Z,2.30
2019-05-12T15:15:58.075Z,2.53
2019-05-12T15:18:23.238Z,1.90
2019-05-12T15:20:51.842Z,1.93
2019-05-12T15:23:23.869Z,2.70
2019-05-12T15:25:53.812Z,1.83
2019-05-12T15:28:23.610Z,2.20
2019-05-12T15:30:54.167Z,2.30
2019-05-12T15:33:24.264Z,1.90
2019-05-12T15:35:54.730Z,1.70
2019-05-12T15:38:23.986Z,2.10
2019-05-12T15:40:53.807Z,1.50
2019-05-12T15:43:24.359Z,1.90
2019-05-12T15:45:55.324Z,1.60
2019-05-12T15:48:26.095Z,1.73
2019-05-12T15:50:59.385Z,1.60
2019-05-12T15:53:27.059Z,2.10
2019-05-12T15:55:55.165Z,1.93
2019-05-12T15:58:24.711Z,1.90
2019-05-12T16:00:55.198Z,1.80
2019-05-12T16:03:26.424Z,1.80
2019-05-12T16:05:54.631Z,1.80
2019-05-12T16:08:24.443Z,1.97
2019-05-12T16:10:53.914Z,1.80
2019-05-12T16:13:24.438Z,1.60
2019-05-12T16:15:55.703Z,1.70
2019-05-12T16:18:26.364Z,1.80
2019-05-12T16:20:59.045Z,1.77
2019-05-12T16:23:29.857Z,1.80
2019-05-12T16:25:54.791Z,2.20
2019-05-12T16:28:26.117Z,2.87
2019-05-12T16:30:53.705Z,4.90
2019-05-12T16:33:22.292Z,7.57
2019-05-12T16:35:50.683Z,7.87
2019-05-12T16:38:20.034Z,5.63
2019-05-12T16:40:49.975Z,3.90
2019-05-12T16:43:18.671Z,2.90
2019-05-12T16:45:47.179Z,2.37
2019-05-12T16:48:29.304Z,1.80
2019-05-12T16:50:46.217Z,1.90
2019-05-12T16:53:21.851Z,1.40
2019-05-12T16:55:49.742Z,1.63
2019-05-12T16:58:15.604Z,1.93
2019-05-12T17:00:49.197Z,1.63
2019-05-12T17:03:18.172Z,1.57
2019-05-12T17:05:50.124Z,1.90
2019-05-12T17:08:16.093Z,1.80
2019-05-12T17:10:49.518Z,2.10
2019-05-12T17:13:16.089Z,2.17
2019-05-12T17:15:48.684Z,2.27
2019-05-12T17:18:15.428Z,2.23
2019-05-12T17:20:47.126Z,1.70
2019-05-12T17:23:14.391Z,1.80
2019-05-12T17:25:43.054Z,1.70
2019-05-12T17:28:13.288Z,2.00
2019-05-12T17:30:43.637Z,2.00
2019-05-12T17:33:13.421Z,1.80
2019-05-12T17:35:44.704Z,2.10
2019-05-12T17:38:20.036Z,2.27
2019-05-12T17:40:44.096Z,2.00
2019-05-12T17:43:12.785Z,2.30
2019-05-12T17:45:41.361Z,2.13
2019-05-12T17:48:09.937Z,2.70
2019-05-12T17:50:40.513Z,2.20
2019-05-12T17:53:09.133Z,2.30
2019-05-12T17:55:44.336Z,1.80
2019-05-12T17:58:08.667Z,2.30
2019-05-12T18:00:41.466Z,2.23
2019-05-12T18:03:18.480Z,2.40
2019-05-12T18:05:42.397Z,2.00
2019-05-12T18:08:09.312Z,1.93
2019-05-12T18:10:39.538Z,2.00
2019-05-12T18:13:08.434Z,2.00
2019-05-12T18:15:38.175Z,1.80
2019-05-12T18:18:07.101Z,2.30
2019-05-12T18:20:40.080Z,1.87
2019-05-12T18:23:06.157Z,2.03
2019-05-12T18:25:36.778Z,1.80
2019-05-12T18:28:05.210Z,1.73
2019-05-12T18:30:33.807Z,1.80
2019-05-12T18:33:06.481Z,2.07
2019-05-12T18:35:34.687Z,2.20
2019-05-12T18:38:07.843Z,2.33
2019-05-12T18:40:34.245Z,2.13
2019-05-12T18:43:03.934Z,2.33
2019-05-12T18:45:34.079Z,2.03
2019-05-12T18:48:10.626Z,2.27
2019-05-12T18:50:34.382Z,1.60
2019-05-12T18:53:03.075Z,1.70
2019-05-12T18:55:36.014Z,1.67
2019-05-12T18:58:04.335Z,1.90
2019-05-12T19:00:33.927Z,1.67
2019-05-12T19:03:06.167Z,1.80
2019-05-12T19:05:33.358Z,2.10
2019-05-12T19:08:03.665Z,2.10
2019-05-12T19:10:33.422Z,3.27
2019-05-12T19:13:06.490Z,3.30
2019-05-12T19:15:33.505Z,2.87
2019-05-12T19:18:03.782Z,3.17
2019-05-12T19:20:36.348Z,3.07
2019-05-12T19:23:03.665Z,3.13
2019-05-12T19:25:35.846Z,2.83
2019-05-12T19:28:08.687Z,2.70
2019-05-12T19:30:36.420Z,2.40
2019-05-12T19:33:06.554Z,2.97
2019-05-12T19:35:37.926Z,2.60
2019-05-12T19:38:06.133Z,2.83
2019-05-12T19:40:34.745Z,2.63
2019-05-12T19:43:08.171Z,2.57
2019-05-12T19:45:33.926Z,2.60
2019-05-12T19:48:04.067Z,2.83
2019-05-12T19:50:32.902Z,2.90
2019-05-12T19:53:01.332Z,2.60
2019-05-12T19:55:29.832Z,3.37
2019-05-12T19:58:03.172Z,2.90
2019-05-12T20:00:33.555Z,2.70
2019-05-12T20:03:04.519Z,2.53
2019-05-12T20:05:34.365Z,2.43
2019-05-12T20:08:04.205Z,2.30
2019-05-12T20:10:36.208Z,2.60
2019-05-12T20:13:03.926Z,2.60
2019-05-12T20:15:36.726Z,2.30
2019-05-12T20:18:04.295Z,2.60
2019-05-12T20:20:36.532Z,2.73
2019-05-12T20:23:03.621Z,2.53
2019-05-12T20:25:34.031Z,2.10
2019-05-12T20:28:05.966Z,2.40
2019-05-12T20:30:32.975Z,2.03
2019-05-12T20:33:01.466Z,1.87
2019-05-12T20:35:30.117Z,2.13
2019-05-12T20:37:58.706Z,1.60
2019-05-12T20:40:27.304Z,2.03
2019-05-12T20:43:07.915Z,2.00
2019-05-12T20:45:26.386Z,2.03
2019-05-12T20:47:54.886Z,1.70
2019-05-12T20:50:32.226Z,2.17
2019-05-12T20:52:58.751Z,2.03
2019-05-12T20:55:24.353Z,2.00
2019-05-12T20:57:56.671Z,1.93
2019-05-12T21:00:24.455Z,1.97
2019-05-12T21:02:53.890Z,1.93
2019-05-12T21:05:23.733Z,1.93
2019-05-12T21:07:55.749Z,1.93
2019-05-12T21:10:26.429Z,2.00
2019-05-12T21:12:54.283Z,1.80
2019-05-12T21:15:27.694Z,2.60
2019-05-12T21:18:02.862Z,2.20
2019-05-12T21:20:25.004Z,2.20
2019-05-12T21:22:53.966Z,2.30
2019-05-12T21:25:23.303Z,2.50
2019-05-12T21:27:53.864Z,2.20
2019-05-12T21:30:24.672Z,2.13
2019-05-12T21:33:01.070Z,2.10
2019-05-12T21:35:25.860Z,2.20
2019-05-12T21:37:54.008Z,2.20
2019-05-12T21:40:30.237Z,2.03
2019-05-12T21:42:53.715Z,2.43
2019-05-12T21:45:26.610Z,2.00
2019-05-12T21:47:54.674Z,2.43
2019-05-12T21:50:24.253Z,2.00
2019-05-12T21:52:59.410Z,2.20
2019-05-12T21:55:26.611Z,2.23
2019-05-12T21:57:54.691Z,2.10
2019-05-12T22:00:31.001Z,2.23
2019-05-12T22:03:02.538Z,2.10
2019-05-12T22:05:47.952Z,1.83
2019-05-12T22:08:03.172Z,2.30
2019-05-12T22:10:34.331Z,2.63
2019-05-12T22:13:06.903Z,2.60
2019-05-12T22:15:33.821Z,3.00
2019-05-12T22:18:04.815Z,2.90
2019-05-12T22:20:34.332Z,2.80
2019-05-12T22:23:07.110Z,2.83
2019-05-12T22:25:34.641Z,3.63
2019-05-12T22:28:08.296Z,3.17
2019-05-12T22:30:35.137Z,2.87
2019-05-12T22:33:09.161Z,3.23
2019-05-12T22:35:34.308Z,2.60
2019-05-12T22:38:09.395Z,2.70
2019-05-12T22:40:33.190Z,2.70
2019-05-12T22:43:06.613Z,2.80
2019-05-12T22:45:36.155Z,2.73
2019-05-12T22:48:04.079Z,3.10
2019-05-12T22:50:35.194Z,2.60
2019-05-12T22:53:04.900Z,3.10
2019-05-12T22:55:36.174Z,2.80
2019-05-12T22:58:04.125Z,2.90
2019-05-12T23:00:34.317Z,2.77
2019-05-12T23:03:09.333Z,3.00
2019-05-12T23:05:33.585Z,2.60
2019-05-12T23:08:06.149Z,3.00
2019-05-12T23:10:32.488Z,3.23
2019-05-12T23:13:02.045Z,3.40
2019-05-12T23:15:33.434Z,3.57
2019-05-12T23:18:04.296Z,3.23
2019-05-12T23:20:35.430Z,3.30
2019-05-12T23:23:04.048Z,3.13
2019-05-12T23:25:33.928Z,3.03
2019-05-12T23:28:08.534Z,3.00
2019-05-12T23:30:33.043Z,3.00
2019-05-12T23:33:03.849Z,3.00
2019-05-12T23:35:37.363Z,2.97
2019-05-12T23:38:04.409Z,3.00
2019-05-12T23:40:34.478Z,2.90
2019-05-12T23:43:04.119Z,3.07
2019-05-12T23:45:33.892Z,2.77
2019-05-12T23:48:03.682Z,3.10
2019-05-12T23:50:32.632Z,2.83
2019-05-12T23:53:03.536Z,2.50
2019-05-12T23:55:34.651Z,2.93
2019-05-12T23:58:04.444Z,2.53
